Time;durP1;ratioP1;P1;durP2;ratioP2;P2;SDS_P1;SDS_P2;PMS_P1;PMS_P2;Temp;Humidity;BMP_temperature;BMP_pressure;BME280_temperature;BME280_humidity;BME280_pressure;Samples;Min_cycle;Max_cycle;Signal;HPM_P1;HPM_P2
2022/04/08 00:00:09;;;;;;;;;;;22.50;43.60;;;;;;6267949;28;19927;-46
2022/04/08 00:03:11;;;;;;;;;;;22.40;43.60;;;;;;6279784;28;19928;-46
2022/04/08 00:06:13;;;;;;;;;;;22.50;43.60;;;;;;6251011;28;20010;-45
2022/04/08 00:09:14;;;;;;;;;;;22.50;43.60;;;;;;6275760;27;19961;-45
2022/04/08 00:12:16;;;;;;;;;;;22.50;43.70;;;;;;6287440;27;20050;-46
2022/04/08 00:15:17;;;;;;;;;;;22.50;43.60;;;;;;6288858;27;19961;-46
2022/04/08 00:18:19;;;;;;;;;;;22.50;43.60;;;;;;6287792;27;19923;-44
2022/04/08 00:21:24;;;;;;;;;;;22.50;43.60;;;;;;6286282;28;20451;-45
2022/04/08 00:24:25;;;;;;;;;;;22.50;43.60;;;;;;6287700;27;19975;-44
2022/04/08 00:27:26;;;;;;;;;;;22.40;43.50;;;;;;6278476;28;20805;-44
2022/04/08 00:30:28;;;;;;;;;;;22.50;43.60;;;;;;6282985;27;19927;-45
2022/04/08 00:33:31;;;;;;;;;;;22.40;43.50;;;;;;6281291;27;20165;-44
2022/04/08 00:36:32;;;;;;;;;;;22.50;43.60;;;;;;6265974;28;20023;-46
2022/04/08 00:39:34;;;;;;;;;;;22.30;43.50;;;;;;6270197;27;19920;-45
2022/04/08 00:42:36;;;;;;;;;;;22.50;43.60;;;;;;6246368;28;19931;-44
2022/04/08 00:45:37;;;;;;;;;;;22.40;43.50;;;;;;6276884;28;19919;-45
2022/04/08 00:48:39;;;;;;;;;;;22.40;43.60;;;;;;6273821;28;20977;-45
2022/04/08 00:51:41;;;;;;;;;;;22.40;43.60;;;;;;6289810;27;20016;-45
2022/04/08 00:54:43;;;;;;;;;;;22.30;43.50;;;;;;6277660;27;19928;-46
2022/04/08 00:57:45;;;;;;;;;;;22.40;43.60;;;;;;6265354;28;19947;-46
2022/04/08 01:00:46;;;;;;;;;;;22.40;43.60;;;;;;6265186;28;19977;-47
2022/04/08 01:03:52;;;;;;;;;;;22.50;43.80;;;;;;6280911;27;20837;-45
2022/04/08 01:06:53;;;;;;;;;;;22.40;43.60;;;;;;6275062;27;20047;-44
2022/04/08 01:09:55;;;;;;;;;;;22.20;43.50;;;;;;6286103;27;20039;-43
2022/04/08 01:12:56;;;;;;;;;;;22.40;43.60;;;;;;6272520;28;19926;-44
2022/04/08 01:15:57;;;;;;;;;;;22.40;43.60;;;;;;6275034;27;20823;-45
2022/04/08 01:19:00;;;;;;;;;;;22.40;43.60;;;;;;6275447;27;19931;-44
2022/04/08 01:22:01;;;;;;;;;;;22.30;43.50;;;;;;6285130;28;19927;-45
2022/04/08 01:25:04;;;;;;;;;;;22.40;43.60;;;;;;6277943;28;19920;-46
2022/04/08 01:28:06;;;;;;;;;;;22.40;43.60;;;;;;6295880;27;19927;-44
2022/04/08 01:31:07;;;;;;;;;;;22.40;43.60;;;;;;6278881;28;20538;-44
2022/04/08 01:34:08;;;;;;;;;;;22.20;43.50;;;;;;6273103;28;20041;-44
2022/04/08 01:37:10;;;;;;;;;;;22.40;43.70;;;;;;6268790;28;20186;-43
2022/04/08 01:40:12;;;;;;;;;;;22.50;43.70;;;;;;6265208;28;20572;-45
2022/04/08 01:43:14;;;;;;;;;;;22.40;43.70;;;;;;6275017;27;20382;-46
2022/04/08 01:46:15;;;;;;;;;;;22.40;43.70;;;;;;6272180;27;19927;-45
2022/04/08 01:49:17;;;;;;;;;;;22.40;43.70;;;;;;6267425;28;20361;-45
2022/04/08 01:52:18;;;;;;;;;;;22.40;43.70;;;;;;6280239;27;20556;-45
2022/04/08 01:55:20;;;;;;;;;;;22.30;43.60;;;;;;6272766;27;20580;-45
2022/04/08 01:58:22;;;;;;;;;;;22.30;43.70;;;;;;6262342;27;20588;-45
2022/04/08 02:01:23;;;;;;;;;;;22.60;43.80;;;;;;6272468;27;19931;-45
2022/04/08 02:04:25;;;;;;;;;;;22.40;43.70;;;;;;6265172;28;20696;-46
2022/04/08 02:07:26;;;;;;;;;;;22.30;43.70;;;;;;6268090;28;20311;-45
2022/04/08 02:10:28;;;;;;;;;;;22.20;43.70;;;;;;6283374;27;20125;-46
2022/04/08 02:13:30;;;;;;;;;;;22.30;43.70;;;;;;6272999;28;20905;-44
2022/04/08 02:16:31;;;;;;;;;;;22.20;43.70;;;;;;6264857;28;19993;-44
2022/04/08 02:19:33;;;;;;;;;;;22.20;43.70;;;;;;6269165;28;19935;-46
2022/04/08 02:22:35;;;;;;;;;;;22.20;43.70;;;;;;6262181;28;20081;-45
2022/04/08 02:25:37;;;;;;;;;;;22.30;43.80;;;;;;6283954;27;20389;-44
2022/04/08 02:28:38;;;;;;;;;;;22.20;43.80;;;;;;6283440;27;20153;-45
2022/04/08 02:31:40;;;;;;;;;;;22.20;43.80;;;;;;6273146;28;20280;-45
2022/04/08 02:34:41;;;;;;;;;;;22.10;43.80;;;;;;6268065;27;20235;-45
2022/04/08 02:37:43;;;;;;;;;;;22.20;43.80;;;;;;6267033;27;20353;-44
2022/04/08 02:40:45;;;;;;;;;;;22.20;43.80;;;;;;6280781;27;20049;-47
2022/04/08 02:43:48;;;;;;;;;;;22.20;43.80;;;;;;6267261;28;20239;-45
2022/04/08 02:46:49;;;;;;;;;;;22.20;43.80;;;;;;6264751;28;19931;-44
2022/04/08 02:49:51;;;;;;;;;;;22.20;43.80;;;;;;6269915;28;20486;-43
2022/04/08 02:52:52;;;;;;;;;;;22.20;43.80;;;;;;6271538;27;20409;-44
2022/04/08 02:55:54;;;;;;;;;;;22.20;43.80;;;;;;6282690;27;20355;-46
2022/04/08 02:58:57;;;;;;;;;;;22.20;43.80;;;;;;6297714;27;20816;-47
2022/04/08 03:01:59;;;;;;;;;;;22.00;43.70;;;;;;6276487;28;19928;-47
2022/04/08 03:05:06;;;;;;;;;;;22.20;43.90;;;;;;6269905;27;20309;-45
2022/04/08 03:08:07;;;;;;;;;;;22.20;43.90;;;;;;6275686;27;20097;-45
2022/04/08 03:11:09;;;;;;;;;;;22.10;43.80;;;;;;6247924;28;19971;-43
2022/04/08 03:14:10;;;;;;;;;;;22.20;43.90;;;;;;6269027;27;20125;-44
2022/04/08 03:17:12;;;;;;;;;;;22.00;43.80;;;;;;6277746;27;19927;-46
2022/04/08 03:20:13;;;;;;;;;;;22.20;43.90;;;;;;6277843;28;21015;-47
2022/04/08 03:23:15;;;;;;;;;;;22.20;43.90;;;;;;6277620;28;20201;-46
2022/04/08 03:26:17;;;;;;;;;;;22.00;43.80;;;;;;6280967;27;20056;-46
2022/04/08 03:29:18;;;;;;;;;;;22.20;43.90;;;;;;6279169;27;20176;-46
2022/04/08 03:32:20;;;;;;;;;;;22.30;44.00;;;;;;6268465;28;20030;-46
2022/04/08 03:35:21;;;;;;;;;;;22.30;44.00;;;;;;6277334;28;19933;-47
2022/04/08 03:38:22;;;;;;;;;;;22.10;43.80;;;;;;6282182;27;19926;-48
2022/04/08 03:41:24;;;;;;;;;;;22.20;43.80;;;;;;6257422;28;20526;-45
2022/04/08 03:44:26;;;;;;;;;;;22.10;43.80;;;;;;6273369;28;20647;-47
2022/04/08 03:47:27;;;;;;;;;;;22.10;43.80;;;;;;6237007;28;20804;-45
2022/04/08 03:50:29;;;;;;;;;;;22.20;43.90;;;;;;6263413;28;20091;-46
2022/04/08 03:53:30;;;;;;;;;;;22.10;43.80;;;;;;6265954;28;20524;-48
2022/04/08 03:56:32;;;;;;;;;;;22.20;43.90;;;;;;6262032;28;20129;-46
2022/04/08 03:59:33;;;;;;;;;;;22.20;43.90;;;;;;6271660;27;20686;-46
2022/04/08 04:02:35;;;;;;;;;;;22.20;44.00;;;;;;6276059;27;20120;-48
2022/04/08 04:05:37;;;;;;;;;;;22.00;43.80;;;;;;6273069;28;20042;-49
2022/04/08 04:08:38;;;;;;;;;;;22.20;44.00;;;;;;6269322;28;20809;-49
2022/04/08 04:11:40;;;;;;;;;;;22.10;43.90;;;;;;6273860;28;19923;-48
2022/04/08 04:14:41;;;;;;;;;;;22.10;44.50;;;;;;6256981;28;19928;-49
2022/04/08 04:17:43;;;;;;;;;;;22.00;43.90;;;;;;6274728;27;20383;-46
2022/04/08 04:20:44;;;;;;;;;;;22.20;44.00;;;;;;6277778;27;19927;-49
2022/04/08 04:23:46;;;;;;;;;;;22.10;43.90;;;;;;6276670;28;19920;-46
2022/04/08 04:26:47;;;;;;;;;;;22.00;43.90;;;;;;6268090;28;20096;-48
2022/04/08 04:29:49;;;;;;;;;;;22.10;44.00;;;;;;6260300;28;20501;-47
2022/04/08 04:32:51;;;;;;;;;;;22.00;43.90;;;;;;6260510;28;20125;-47
2022/04/08 04:35:52;;;;;;;;;;;22.20;44.00;;;;;;6259623;28;20046;-45
2022/04/08 04:38:54;;;;;;;;;;;22.20;44.00;;;;;;6259065;28;20115;-47
2022/04/08 04:41:56;;;;;;;;;;;22.00;43.90;;;;;;6264740;27;19927;-46
2022/04/08 04:44:57;;;;;;;;;;;22.10;44.00;;;;;;6266332;27;20012;-46
2022/04/08 04:47:59;;;;;;;;;;;22.10;44.10;;;;;;6262433;27;20058;-46
2022/04/08 04:51:00;;;;;;;;;;;22.10;44.00;;;;;;6269702;27;19927;-46
2022/04/08 04:54:02;;;;;;;;;;;22.10;44.00;;;;;;6257226;27;20348;-50
2022/04/08 04:57:04;;;;;;;;;;;22.10;44.10;;;;;;6273515;27;19927;-46
2022/04/08 05:00:08;;;;;;;;;;;21.90;44.00;;;;;;6284069;27;20009;-47
2022/04/08 05:03:11;;;;;;;;;;;21.90;44.00;;;;;;6275132;27;20075;-46
2022/04/08 05:06:12;;;;;;;;;;;21.90;44.00;;;;;;6256911;28;19920;-46
2022/04/08 05:09:14;;;;;;;;;;;21.90;44.00;;;;;;6273968;27;19934;-46
2022/04/08 05:12:16;;;;;;;;;;;22.10;44.20;;;;;;6249303;28;20494;-48
2022/04/08 05:15:17;;;;;;;;;;;22.10;44.20;;;;;;6275819;27;19970;-54
2022/04/08 05:18:18;;;;;;;;;;;21.90;44.00;;;;;;6256873;28;21012;-45
2022/04/08 05:21:20;;;;;;;;;;;22.00;44.10;;;;;;6259412;28;19955;-47
2022/04/08 05:24:22;;;;;;;;;;;22.00;44.10;;;;;;6258085;28;19935;-49
2022/04/08 05:27:24;;;;;;;;;;;22.00;44.10;;;;;;6260944;28;19942;-50
2022/04/08 05:30:25;;;;;;;;;;;22.10;44.30;;;;;;6273648;27;19967;-50
2022/04/08 05:33:27;;;;;;;;;;;22.00;44.20;;;;;;6268633;28;20000;-46
2022/04/08 05:36:28;;;;;;;;;;;22.00;44.20;;;;;;6256236;28;19919;-47
2022/04/08 05:39:29;;;;;;;;;;;22.00;44.20;;;;;;6268686;28;19927;-50
2022/04/08 05:42:31;;;;;;;;;;;22.10;44.20;;;;;;6269285;28;19986;-46
2022/04/08 05:45:32;;;;;;;;;;;22.00;44.20;;;;;;6275494;27;20037;-45
2022/04/08 05:48:34;;;;;;;;;;;21.90;44.10;;;;;;6258370;27;19924;-48
2022/04/08 05:51:35;;;;;;;;;;;22.10;44.20;;;;;;6270104;27;20227;-46
2022/04/08 05:54:42;;;;;;;;;;;22.00;44.20;;;;;;6267306;28;19928;-46
2022/04/08 05:57:45;;;;;;;;;;;22.00;44.20;;;;;;6265740;27;19989;-46
2022/04/08 06:00:46;;;;;;;;;;;21.90;44.20;;;;;;6268592;28;19931;-46
2022/04/08 06:03:48;;;;;;;;;;;22.00;44.30;;;;;;6262975;27;19934;-48
2022/04/08 06:06:50;;;;;;;;;;;22.10;44.30;;;;;;6273425;28;19927;-47
2022/04/08 06:09:51;;;;;;;;;;;22.00;44.30;;;;;;6269888;27;19942;-45
2022/04/08 06:12:55;;;;;;;;;;;21.90;44.20;;;;;;6254762;27;19967;-46
2022/04/08 06:15:56;;;;;;;;;;;22.00;44.30;;;;;;6246435;27;19923;-48
2022/04/08 06:18:57;;;;;;;;;;;21.80;44.20;;;;;;6255207;27;20492;-45
2022/04/08 06:21:59;;;;;;;;;;;22.20;44.40;;;;;;6228926;28;21067;-47
2022/04/08 06:25:00;;;;;;;;;;;21.90;44.30;;;;;;6244091;28;20043;-48
2022/04/08 06:28:03;;;;;;;;;;;22.00;44.30;;;;;;6248217;27;19920;-45
2022/04/08 06:31:05;;;;;;;;;;;22.00;44.30;;;;;;6250050;27;20837;-48
2022/04/08 06:34:06;;;;;;;;;;;22.30;44.40;;;;;;6249462;27;19927;-45
2022/04/08 06:37:08;;;;;;;;;;;21.90;44.20;;;;;;6215062;28;19958;-46
2022/04/08 06:40:10;;;;;;;;;;;22.00;44.30;;;;;;6230348;28;20071;-47
2022/04/08 06:43:12;;;;;;;;;;;21.80;44.20;;;;;;6228513;27;19928;-45
2022/04/08 06:46:14;;;;;;;;;;;22.10;44.40;;;;;;6191091;27;20511;-45
2022/04/08 06:49:19;;;;;;;;;;;21.90;44.30;;;;;;6187845;27;21237;-46
2022/04/08 06:52:20;;;;;;;;;;;22.10;44.30;;;;;;6192298;27;19993;-48
2022/04/08 06:55:24;;;;;;;;;;;22.20;44.40;;;;;;6153912;28;20856;-46
2022/04/08 06:58:26;;;;;;;;;;;22.10;44.30;;;;;;6148984;27;19927;-45
2022/04/08 07:01:29;;;;;;;;;;;22.10;44.30;;;;;;6141964;27;19974;-46
2022/04/08 07:04:31;;;;;;;;;;;22.30;44.40;;;;;;6153392;27;20016;-47
2022/04/08 07:07:32;;;;;;;;;;;22.10;44.40;;;;;;6170742;27;20050;-46
2022/04/08 07:10:34;;;;;;;;;;;22.10;44.50;;;;;;6101091;28;19935;-46
2022/04/08 07:13:41;;;;;;;;;;;22.10;44.50;;;;;;6130818;28;20017;-49
2022/04/08 07:16:43;;;;;;;;;;;22.10;44.60;;;;;;6124814;28;20103;-46
2022/04/08 07:19:44;;;;;;;;;;;22.10;44.40;;;;;;6172229;27;19965;-46
2022/04/08 07:22:46;;;;;;;;;;;22.10;44.50;;;;;;6179786;27;21079;-47
2022/04/08 07:25:48;;;;;;;;;;;21.90;44.40;;;;;;6156490;28;21149;-47
2022/04/08 07:28:50;;;;;;;;;;;22.10;44.50;;;;;;6179411;28;20113;-50
2022/04/08 07:31:51;;;;;;;;;;;22.20;44.70;;;;;;6150584;27;20717;-45
2022/04/08 07:34:53;;;;;;;;;;;22.10;44.50;;;;;;6177119;27;20253;-46
2022/04/08 07:37:54;;;;;;;;;;;22.20;44.60;;;;;;6149042;28;21290;-48
2022/04/08 07:40:57;;;;;;;;;;;22.20;44.60;;;;;;6159614;27;20003;-45
2022/04/08 07:43:59;;;;;;;;;;;22.20;44.70;;;;;;6141237;27;20069;-48
2022/04/08 07:47:01;;;;;;;;;;;22.20;44.60;;;;;;6157983;27;21364;-45
2022/04/08 07:50:04;;;;;;;;;;;22.10;44.60;;;;;;6122475;28;19950;-46
2022/04/08 07:53:06;;;;;;;;;;;22.20;44.70;;;;;;6130451;28;19928;-46
2022/04/08 07:56:07;;;;;;;;;;;22.20;44.70;;;;;;6129924;28;19927;-47
2022/04/08 07:59:09;;;;;;;;;;;22.20;44.70;;;;;;6115931;28;19928;-50
2022/04/08 08:02:10;;;;;;;;;;;22.20;44.70;;;;;;6142737;27;19934;-47
2022/04/08 08:05:12;;;;;;;;;;;22.20;44.80;;;;;;6133941;28;19996;-45
2022/04/08 08:08:13;;;;;;;;;;;22.20;44.80;;;;;;6121719;27;20757;-47
2022/04/08 08:11:20;;;;;;;;;;;22.30;44.80;;;;;;6158707;27;20217;-46
2022/04/08 08:14:30;;;;;;;;;;;22.20;44.80;;;;;;6134319;27;19935;-49
2022/04/08 08:17:32;;;;;;;;;;;22.30;44.90;;;;;;6134634;27;19927;-46
2022/04/08 08:20:33;;;;;;;;;;;22.00;44.70;;;;;;6161043;28;19934;-44
2022/04/08 08:23:34;;;;;;;;;;;22.20;44.80;;;;;;6143587;27;19933;-45
2022/04/08 08:26:36;;;;;;;;;;;22.30;44.90;;;;;;6141067;27;19928;-48
2022/04/08 08:29:38;;;;;;;;;;;22.20;44.80;;;;;;6135853;27;19928;-45
2022/04/08 08:32:42;;;;;;;;;;;22.20;44.90;;;;;;6146925;27;19935;-45
2022/04/08 08:35:45;;;;;;;;;;;22.20;44.90;;;;;;6148549;28;19927;-45
2022/04/08 08:38:46;;;;;;;;;;;22.30;45.00;;;;;;6145776;27;20233;-46
2022/04/08 08:41:48;;;;;;;;;;;22.10;44.90;;;;;;6155225;27;21537;-45
2022/04/08 08:44:51;;;;;;;;;;;22.10;44.90;;;;;;6137503;27;20049;-45
2022/04/08 08:47:52;;;;;;;;;;;22.30;44.90;;;;;;6124374;27;19928;-45
2022/04/08 08:50:55;;;;;;;;;;;22.30;45.00;;;;;;6090623;27;19934;-46
2022/04/08 08:53:56;;;;;;;;;;;22.30;45.00;;;;;;6117491;27;19959;-47
2022/04/08 08:57:00;;;;;;;;;;;22.20;45.00;;;;;;6139934;27;19939;-47
2022/04/08 09:00:06;;;;;;;;;;;22.30;45.10;;;;;;6131722;27;20050;-48
2022/04/08 09:03:09;;;;;;;;;;;22.20;45.00;;;;;;6098570;27;19927;-45
2022/04/08 09:06:11;;;;;;;;;;;22.30;45.10;;;;;;6126759;27;20953;-45
2022/04/08 09:09:12;;;;;;;;;;;22.40;45.10;;;;;;6161117;27;22120;-45
2022/04/08 09:12:14;;;;;;;;;;;22.60;45.10;;;;;;6134786;27;19929;-46
2022/04/08 09:15:16;;;;;;;;;;;22.10;44.90;;;;;;6161368;27;20943;-46
2022/04/08 09:18:17;;;;;;;;;;;22.40;44.90;;;;;;6164315;27;19927;-46
2022/04/08 09:21:22;;;;;;;;;;;22.40;44.90;;;;;;6161720;27;20008;-45
2022/04/08 09:24:23;;;;;;;;;;;22.50;44.90;;;;;;6149083;27;19927;-46
2022/04/08 09:27:31;;;;;;;;;;;22.50;44.90;;;;;;6150472;27;19927;-48
2022/04/08 09:30:34;;;;;;;;;;;22.60;44.90;;;;;;6152785;27;19935;-44
2022/04/08 09:33:35;;;;;;;;;;;22.60;44.90;;;;;;6164301;27;19927;-45
2022/04/08 09:36:40;;;;;;;;;;;22.60;44.90;;;;;;6149995;27;20001;-45
2022/04/08 09:39:52;;;;;;;;;;;22.60;44.90;;;;;;6146516;27;19927;-47
2022/04/08 09:42:54;;;;;;;;;;;22.60;44.90;;;;;;6154732;27;19927;-45
2022/04/08 09:46:11;;;;;;;;;;;22.80;45.00;;;;;;6148576;27;19927;-45
2022/04/08 09:49:12;;;;;;;;;;;22.70;44.90;;;;;;6120095;27;21127;-46
2022/04/08 09:52:15;;;;;;;;;;;22.50;44.80;;;;;;6098719;27;20385;-45
2022/04/08 09:55:16;;;;;;;;;;;22.60;44.90;;;;;;6131459;27;21131;-45
2022/04/08 09:58:19;;;;;;;;;;;22.60;44.90;;;;;;6145497;27;19934;-47
2022/04/08 10:01:23;;;;;;;;;;;22.60;45.10;;;;;;6157065;27;19982;-50
2022/04/08 10:04:25;;;;;;;;;;;22.70;45.00;;;;;;6141611;27;19934;-45
2022/04/08 10:07:26;;;;;;;;;;;22.70;45.00;;;;;;6138341;27;19932;-47
2022/04/08 10:10:31;;;;;;;;;;;22.60;45.00;;;;;;6166111;27;19935;-47
2022/04/08 10:13:41;;;;;;;;;;;22.70;45.10;;;;;;6146226;27;19928;-47
2022/04/08 10:16:45;;;;;;;;;;;22.60;45.00;;;;;;6107507;28;20326;-46
2022/04/08 10:19:46;;;;;;;;;;;22.70;45.00;;;;;;6124138;28;19950;-45
2022/04/08 10:23:02;;;;;;;;;;;22.80;45.10;;;;;;6136699;27;20017;-48
2022/04/08 10:26:05;;;;;;;;;;;22.60;44.90;;;;;;6145652;28;19928;-47
2022/04/08 10:29:11;;;;;;;;;;;22.60;44.90;;;;;;6155161;28;20008;-46
2022/04/08 10:32:14;;;;;;;;;;;22.70;45.00;;;;;;6180057;27;20864;-46
2022/04/08 10:35:17;;;;;;;;;;;22.80;45.00;;;;;;6168725;28;21202;-44
2022/04/08 10:38:19;;;;;;;;;;;22.70;45.00;;;;;;6169019;27;19934;-45
2022/04/08 10:41:25;;;;;;;;;;;22.80;45.10;;;;;;6173975;27;19928;-46
2022/04/08 10:44:31;;;;;;;;;;;22.80;45.00;;;;;;6189356;27;19928;-47
2022/04/08 10:47:34;;;;;;;;;;;22.80;45.00;;;;;;6198606;27;19934;-47
2022/04/08 10:50:37;;;;;;;;;;;22.80;45.10;;;;;;6183000;28;19928;-44
2022/04/08 10:53:41;;;;;;;;;;;22.80;45.00;;;;;;6194332;27;20107;-47
2022/04/08 10:56:42;;;;;;;;;;;22.80;45.00;;;;;;6180507;28;20058;-48
2022/04/08 10:59:52;;;;;;;;;;;22.80;45.00;;;;;;6195997;27;20783;-47
2022/04/08 11:02:54;;;;;;;;;;;22.80;45.00;;;;;;6173444;28;19928;-47
2022/04/08 11:05:58;;;;;;;;;;;22.90;45.10;;;;;;6194965;28;20041;-49
2022/04/08 11:09:03;;;;;;;;;;;22.90;45.10;;;;;;6188776;27;20039;-45
2022/04/08 11:12:05;;;;;;;;;;;22.80;45.00;;;;;;6191460;27;19935;-46
2022/04/08 11:15:12;;;;;;;;;;;22.90;45.10;;;;;;6191742;28;19964;-52
2022/04/08 11:18:14;;;;;;;;;;;22.90;45.10;;;;;;6204483;28;20042;-47
2022/04/08 11:21:18;;;;;;;;;;;22.90;45.10;;;;;;6193421;28;19923;-49
2022/04/08 11:24:19;;;;;;;;;;;22.90;45.00;;;;;;6197117;28;19932;-48
2022/04/08 11:27:21;;;;;;;;;;;22.90;45.10;;;;;;6195232;27;19957;-51
2022/04/08 11:30:23;;;;;;;;;;;22.90;45.00;;;;;;6194862;28;20551;-47
2022/04/08 11:33:26;;;;;;;;;;;23.10;45.10;;;;;;6188642;27;19934;-48
2022/04/08 11:36:27;;;;;;;;;;;22.90;45.10;;;;;;6198783;27;19927;-48
2022/04/08 11:39:30;;;;;;;;;;;23.00;45.10;;;;;;6178431;27;37064;-45
2022/04/08 11:42:32;;;;;;;;;;;22.80;45.00;;;;;;6202854;27;20403;-46
2022/04/08 11:45:33;;;;;;;;;;;22.80;45.00;;;;;;6181381;27;19928;-46
2022/04/08 11:48:38;;;;;;;;;;;23.00;45.10;;;;;;6153033;27;19928;-47
2022/04/08 11:51:39;;;;;;;;;;;23.00;45.10;;;;;;6184762;27;20016;-53
2022/04/08 11:54:41;;;;;;;;;;;23.00;45.20;;;;;;6161338;28;19927;-47
2022/04/08 11:58:02;;;;;;;;;;;23.00;45.20;;;;;;6129834;27;20015;-44
2022/04/08 12:01:05;;;;;;;;;;;23.00;45.20;;;;;;6134546;27;19928;-47
2022/04/08 12:04:09;;;;;;;;;;;23.00;45.20;;;;;;6159453;27;20049;-47
2022/04/08 12:07:20;;;;;;;;;;;22.90;45.30;;;;;;6170235;27;20054;-47
2022/04/08 12:10:22;;;;;;;;;;;22.90;45.30;;;;;;6179290;27;20000;-47
2022/04/08 12:13:25;;;;;;;;;;;22.90;45.40;;;;;;6165492;28;19976;-46
2022/04/08 12:16:28;;;;;;;;;;;22.90;45.40;;;;;;6173381;27;19997;-48
2022/04/08 12:19:38;;;;;;;;;;;23.00;45.40;;;;;;6155869;27;19935;-50
2022/04/08 12:22:45;;;;;;;;;;;22.90;45.50;;;;;;6148590;28;20104;-51
2022/04/08 12:25:49;;;;;;;;;;;22.80;45.50;;;;;;6148955;27;19939;-47
2022/04/08 12:28:51;;;;;;;;;;;22.70;45.50;;;;;;6135508;28;19927;-47
2022/04/08 12:31:55;;;;;;;;;;;22.80;45.50;;;;;;6135223;28;20017;-47
2022/04/08 12:34:58;;;;;;;;;;;22.80;45.60;;;;;;6131221;27;19931;-45
2022/04/08 12:37:59;;;;;;;;;;;22.80;45.50;;;;;;6093323;28;21406;-45
2022/04/08 12:41:01;;;;;;;;;;;22.80;45.60;;;;;;6135297;27;19943;-46
2022/04/08 12:44:02;;;;;;;;;;;22.70;45.60;;;;;;6144560;27;19927;-45
2022/04/08 12:47:04;;;;;;;;;;;22.80;45.50;;;;;;6146215;27;20062;-52
2022/04/08 12:50:08;;;;;;;;;;;22.90;45.60;;;;;;6157876;27;20005;-51
2022/04/08 12:53:09;;;;;;;;;;;22.90;45.60;;;;;;6164281;27;19932;-48
2022/04/08 12:56:11;;;;;;;;;;;22.80;45.50;;;;;;6133978;27;19934;-51
2022/04/08 12:59:12;;;;;;;;;;;22.90;45.00;;;;;;6125616;28;19928;-49
2022/04/08 13:02:13;;;;;;;;;;;22.90;45.50;;;;;;6138397;27;19941;-52
2022/04/08 13:05:16;;;;;;;;;;;22.80;45.40;;;;;;6131743;28;21202;-46
2022/04/08 13:08:17;;;;;;;;;;;22.80;45.40;;;;;;6127387;27;20685;-47
2022/04/08 13:11:19;;;;;;;;;;;22.90;45.40;;;;;;6109796;28;19934;-48
2022/04/08 13:14:20;;;;;;;;;;;22.80;45.40;;;;;;6139918;28;19934;-48
2022/04/08 13:17:22;;;;;;;;;;;22.90;45.40;;;;;;6155741;27;19979;-48
2022/04/08 13:20:24;;;;;;;;;;;22.90;45.30;;;;;;6164468;27;19956;-48
2022/04/08 13:23:25;;;;;;;;;;;23.20;45.40;;;;;;6175627;27;22567;-48
2022/04/08 13:26:27;;;;;;;;;;;23.00;45.30;;;;;;6168154;27;20051;-52
2022/04/08 13:29:29;;;;;;;;;;;23.00;45.30;;;;;;6142922;28;19928;-47
2022/04/08 13:32:36;;;;;;;;;;;23.00;45.30;;;;;;6125060;28;21016;-46
2022/04/08 13:35:38;;;;;;;;;;;23.10;45.30;;;;;;6145184;27;19928;-50
2022/04/08 13:38:40;;;;;;;;;;;23.10;45.40;;;;;;6153463;27;20095;-46
2022/04/08 13:41:42;;;;;;;;;;;23.00;45.30;;;;;;6141187;27;21826;-45
2022/04/08 13:44:44;;;;;;;;;;;23.70;45.70;;;;;;6120419;27;19978;-46
2022/04/08 13:47:46;;;;;;;;;;;23.10;45.40;;;;;;6126109;27;21116;-45
2022/04/08 13:50:48;;;;;;;;;;;23.10;45.20;;;;;;6127732;28;21370;-43
2022/04/08 13:53:51;;;;;;;;;;;23.40;45.30;;;;;;6157814;27;20130;-45
2022/04/08 13:56:52;;;;;;;;;;;23.20;45.10;;;;;;6139825;28;19935;-45
2022/04/08 13:59:54;;;;;;;;;;;23.30;45.20;;;;;;6096523;28;19927;-46
2022/04/08 14:02:55;;;;;;;;;;;23.30;45.10;;;;;;6125903;28;19928;-43
2022/04/08 14:05:58;;;;;;;;;;;23.20;44.90;;;;;;6106719;28;19935;-47
2022/04/08 14:09:01;;;;;;;;;;;23.40;45.00;;;;;;6139790;27;19932;-47
2022/04/08 14:12:02;;;;;;;;;;;23.30;44.30;;;;;;6144224;27;19928;-46
2022/04/08 14:15:04;;;;;;;;;;;23.40;44.90;;;;;;6151993;27;20009;-46
2022/04/08 14:18:26;;;;;;;;;;;23.50;45.00;;;;;;6162873;27;19932;-49
2022/04/08 14:21:28;;;;;;;;;;;23.50;45.00;;;;;;6152447;28;19928;-44
2022/04/08 14:24:29;;;;;;;;;;;23.50;44.90;;;;;;6145400;28;19928;-45
2022/04/08 14:27:31;;;;;;;;;;;23.50;44.90;;;;;;6150452;27;21188;-48
2022/04/08 14:30:33;;;;;;;;;;;23.40;44.90;;;;;;6137754;27;22259;-46
2022/04/08 14:33:36;;;;;;;;;;;23.80;45.10;;;;;;6171167;27;21224;-47
2022/04/08 14:36:38;;;;;;;;;;;23.50;45.00;;;;;;6159729;27;20137;-46
2022/04/08 14:39:40;;;;;;;;;;;23.50;45.10;;;;;;6146755;28;19928;-48
2022/04/08 14:42:41;;;;;;;;;;;23.40;45.10;;;;;;6148337;27;19931;-49
2022/04/08 14:45:43;;;;;;;;;;;23.40;45.10;;;;;;6114000;27;20482;-47
2022/04/08 14:48:44;;;;;;;;;;;23.50;45.10;;;;;;6138186;27;20282;-48
2022/04/08 14:51:47;;;;;;;;;;;23.50;45.10;;;;;;6154220;27;19931;-47
2022/04/08 14:54:49;;;;;;;;;;;23.50;45.10;;;;;;6138489;27;19997;-48
2022/04/08 14:57:50;;;;;;;;;;;23.50;45.10;;;;;;6136102;27;27564;-46
2022/04/08 15:00:51;;;;;;;;;;;23.60;45.10;;;;;;6128728;28;25839;-47
2022/04/08 15:03:53;;;;;;;;;;;23.50;45.00;;;;;;6134176;27;19957;-48
2022/04/08 15:06:55;;;;;;;;;;;23.60;45.10;;;;;;6130616;27;29036;-45
2022/04/08 15:09:57;;;;;;;;;;;23.60;45.00;;;;;;6148113;27;20395;-45
2022/04/08 15:12:58;;;;;;;;;;;23.60;45.00;;;;;;6169614;27;20017;-46
2022/04/08 15:16:00;;;;;;;;;;;23.60;45.00;;;;;;6112507;27;20883;-45
2022/04/08 15:19:01;;;;;;;;;;;23.60;45.00;;;;;;6124212;27;20103;-45
2022/04/08 15:22:04;;;;;;;;;;;23.60;45.00;;;;;;6126339;27;21010;-46
2022/04/08 15:25:25;;;;;;;;;;;23.70;45.00;;;;;;6136492;27;19950;-45
2022/04/08 15:28:27;;;;;;;;;;;23.60;44.90;;;;;;6173008;27;20108;-46
2022/04/08 15:31:28;;;;;;;;;;;23.60;44.90;;;;;;6183861;27;20406;-45
2022/04/08 15:34:30;;;;;;;;;;;23.60;45.00;;;;;;6192562;27;20030;-46
2022/04/08 15:37:32;;;;;;;;;;;23.70;45.10;;;;;;6154358;27;20183;-45
2022/04/08 15:40:35;;;;;;;;;;;23.60;45.10;;;;;;6160547;28;19954;-45
2022/04/08 15:43:37;;;;;;;;;;;23.60;45.10;;;;;;6186780;27;20171;-45
2022/04/08 15:46:38;;;;;;;;;;;23.50;45.00;;;;;;6185861;27;20355;-45
2022/04/08 15:49:39;;;;;;;;;;;23.40;45.00;;;;;;6175432;28;19927;-45
2022/04/08 15:52:41;;;;;;;;;;;23.40;44.90;;;;;;6183605;28;20345;-46
2022/04/08 15:55:45;;;;;;;;;;;23.50;45.00;;;;;;6190009;27;20232;-46
2022/04/08 15:58:46;;;;;;;;;;;23.60;45.00;;;;;;6190645;27;21260;-46
2022/04/08 16:01:47;;;;;;;;;;;23.40;44.90;;;;;;6205139;28;20077;-45
2022/04/08 16:04:49;;;;;;;;;;;23.40;44.90;;;;;;6208584;27;20042;-46
2022/04/08 16:07:51;;;;;;;;;;;23.40;45.00;;;;;;6222527;27;20041;-47
2022/04/08 16:10:52;;;;;;;;;;;23.40;44.90;;;;;;6224073;27;19928;-45
2022/04/08 16:13:54;;;;;;;;;;;23.40;44.90;;;;;;6233322;27;19927;-45
2022/04/08 16:16:55;;;;;;;;;;;23.40;44.90;;;;;;6245957;27;19934;-46
2022/04/08 16:19:58;;;;;;;;;;;23.40;44.90;;;;;;6212969;27;19929;-47
2022/04/08 16:23:00;;;;;;;;;;;23.40;45.00;;;;;;6239134;27;19946;-47
2022/04/08 16:26:02;;;;;;;;;;;23.40;44.90;;;;;;6247303;27;19928;-45
2022/04/08 16:29:03;;;;;;;;;;;23.30;44.90;;;;;;6237321;28;20052;-46
2022/04/08 16:32:05;;;;;;;;;;;23.40;45.00;;;;;;6224683;28;19935;-47
2022/04/08 16:35:27;;;;;;;;;;;23.50;45.10;;;;;;6232217;28;19928;-46
2022/04/08 16:38:29;;;;;;;;;;;23.30;44.90;;;;;;6255575;27;20828;-44
2022/04/08 16:41:30;;;;;;;;;;;23.30;44.90;;;;;;6259897;27;20182;-47
2022/04/08 16:44:31;;;;;;;;;;;23.30;44.90;;;;;;6251572;28;19967;-43
2022/04/08 16:47:33;;;;;;;;;;;23.20;44.90;;;;;;6252135;28;19927;-44
2022/04/08 16:50:34;;;;;;;;;;;23.20;44.90;;;;;;6235525;28;19975;-46
2022/04/08 16:53:37;;;;;;;;;;;23.20;44.90;;;;;;6243838;28;19968;-44
2022/04/08 16:56:38;;;;;;;;;;;23.20;44.90;;;;;;6256725;27;21180;-44
2022/04/08 16:59:39;;;;;;;;;;;23.10;44.90;;;;;;6240937;28;20838;-45
2022/04/08 17:02:41;;;;;;;;;;;23.10;44.90;;;;;;6229315;28;19927;-46
2022/04/08 17:05:42;;;;;;;;;;;23.20;45.00;;;;;;6252814;27;20856;-46
2022/04/08 17:08:44;;;;;;;;;;;23.20;45.00;;;;;;6258878;27;19948;-45
2022/04/08 17:11:46;;;;;;;;;;;23.00;44.80;;;;;;6276883;27;20081;-49
2022/04/08 17:14:47;;;;;;;;;;;23.10;44.80;;;;;;6241125;28;19934;-45
2022/04/08 17:17:49;;;;;;;;;;;23.10;44.80;;;;;;6257164;27;20041;-45
2022/04/08 17:20:50;;;;;;;;;;;23.10;44.80;;;;;;6252045;27;19932;-46
2022/04/08 17:23:52;;;;;;;;;;;23.20;44.80;;;;;;6256013;27;19994;-45
2022/04/08 17:26:55;;;;;;;;;;;23.20;44.70;;;;;;6249684;28;19993;-44
2022/04/08 17:29:56;;;;;;;;;;;23.10;44.60;;;;;;6243454;28;20422;-48
2022/04/08 17:32:58;;;;;;;;;;;23.40;44.80;;;;;;6249280;28;20355;-46
2022/04/08 17:35:59;;;;;;;;;;;22.90;44.60;;;;;;6268372;27;20175;-45
2022/04/08 17:39:01;;;;;;;;;;;23.10;44.70;;;;;;6253494;28;20141;-46